This is the latest recevied weather packets stored in our database for station/object DL2AKT-20. If no packets are shown the sender has not sent any weather packets the latest 10 day(s).
| Time | Temp. | Humidity | Pressure | Rain* | Wind** | Luminosity | Snow |
|---|---|---|---|---|---|---|---|
| 1777382448 | 16.67° C | 32% | 1025.4 hPa | - | - | - | - |
| 1777381548 | 16.67° C | 32% | 1025.3 hPa | - | - | - | - |
| 1777380653 | 17.22° C | 30% | 1025.5 hPa | - | - | - | - |
| 1777379753 | 17.22° C | 31% | 1025.4 hPa | - | - | - | - |
| 1777378853 | 17.22° C | 32% | 1025.3 hPa | - | - | - | - |
| 1777377952 | 17.22° C | 31% | 1025.4 hPa | - | - | - | - |
| 1777377052 | 18.33° C | 31% | 1025.4 hPa | - | - | - | - |
| 1777376152 | 17.78° C | 33% | 1025.4 hPa | - | - | - | - |
| 1777375252 | 17.78° C | 33% | 1025.6 hPa | - | - | - | - |
| 1777374352 | 17.78° C | 32% | 1025.4 hPa | - | - | - | - |
| 1777373452 | 17.78° C | 34% | 1025.4 hPa | - | - | - | - |
| 1777372552 | 17.78° C | 34% | 1025.5 hPa | - | - | - | - |
| 1777371652 | 17.78° C | 32% | 1025.4 hPa | - | - | - | - |
| 1777370752 | 17.78° C | 30% | 1025.4 hPa | - | - | - | - |
| 1777369852 | 17.78° C | 32% | 1025.5 hPa | - | - | - | - |
| 1777368952 | 16.67° C | 35% | 1025.5 hPa | - | - | - | - |
| 1777368052 | 17.78° C | 32% | 1025.5 hPa | - | - | - | - |
| 1777367152 | 17.22° C | 34% | 1025.5 hPa | - | - | - | - |
| 1777366252 | 15.56° C | 37% | 1025.5 hPa | - | - | - | - |
| 1777365351 | 15.56° C | 37% | 1025.4 hPa | - | - | - | - |
| 1777364451 | 13.89° C | 40% | 1025.4 hPa | - | - | - | - |
| 1777363551 | 15° C | 39% | 1025.3 hPa | - | - | - | - |
| 1777362652 | 14.44° C | 40% | 1025.2 hPa | - | - | - | - |
| 1777361749 | 13.89° C | 40% | 1025.1 hPa | - | - | - | - |
| 1777360849 | 13.33° C | 41% | 1025 hPa | - | - | - | - |
* Rain since midnight (hover to see other rain measurements)
** Current wind speed in m/s (hover to see current wind gust speed)